Terminal Aerodrome Forecast
Issued by NWS

Home | Current Version | Previous Version | Text Only | Print | Product List | Glossary On
Versions: 1 2 3 4 5 6 7 8 9 10 11 12 13 14 15
000
FTUS45 KABQ 211139
TAFSAF
TAF
KSAF 211139Z 2112/2212 33005KT P6SM SCT045
     FM211330 33008KT P6SM BKN045
     FM211800 28010KT P6SM FEW050
     FM212100 26007KT P6SM SCT090
     FM220200 11011KT P6SM SKC=

USA.gov is the U.S. government's official web portal to all federal, state and local government web resources and services.